logo tempoitalia

Diretta Meteo Essaouira, Maroccolunedì 31 agosto ore 06:00

Mappa
Sereno 18 °C Sereno 24 Ore: T.min 18 T.max 34
Ponente Nord Km/h 3.7 Punto di rugiada: 18 °C Umidità: 100% Visibilità: 8 Km
Il sole sorge alle: 07:14 Il sole tramonta alle: 20:04
31 Agosto 2026 06:00 tempo osservato: Sereno Sereno 18 100 1015 vento: Nord N 3.7
31 Agosto 2026 05:00 tempo osservato: Sereno Sereno 18 100 1015 vento: Nord N 3.7
31 Agosto 2026 04:00 tempo osservato: Sereno Sereno 19 100 1015 vento: Nord N 3.7
31 Agosto 2026 03:00 tempo osservato: Sereno Sereno 18 100 1015 vento: Nord SO 9.3
31 Agosto 2026 02:00 tempo osservato: Sereno Sereno 19 93 1016 vento: Nord SO 11.1
31 Agosto 2026 01:00 tempo osservato: Sereno Sereno 24 69 1015 vento: Nord N/NE 7.4
31 Agosto 2026 00:00 tempo osservato: Sereno Sereno 24 69 1015 vento: Nord NE 11.1
30 Agosto 2026 23:00 tempo osservato: Sereno Sereno 25 69 1015 vento: Nord N/NE 13
30 Agosto 2026 22:00 tempo osservato: Sereno Sereno 25 69 1015 vento: Nord N 13
30 Agosto 2026 21:00 tempo osservato: Sereno Sereno 25 73 1014 vento: Nord N 16.7
30 Agosto 2026 20:00 tempo osservato: Sereno Sereno 26 69 1014 vento: Nord N 20.3
30 Agosto 2026 19:00 tempo osservato: Sereno Sereno 28 61 1014 vento: Nord N 24
30 Agosto 2026 18:00 tempo osservato: Sereno Sereno 31 48 1013 vento: Nord N 27.8
30 Agosto 2026 17:00 tempo osservato: Sereno Sereno 33 41 1013 vento: Nord N 27.8
30 Agosto 2026 16:00 tempo osservato: Sereno Sereno 34 38 1013 vento: Nord N 27.8
30 Agosto 2026 15:00 tempo osservato: Sereno Sereno 34 41 1014 vento: Nord N 24
30 Agosto 2026 14:00 tempo osservato: Sereno Sereno 33 43 1014 vento: Nord N/NO 24
30 Agosto 2026 13:00 tempo osservato: Sereno Sereno 33 43 1015 vento: Nord N 22.2
30 Agosto 2026 12:00 tempo osservato: Sereno Sereno 34 34 1015 vento: Nord N 13
30 Agosto 2026 11:00 tempo osservato: Sereno Sereno 32 38 1015 vento: Nord N/NE 16.7
30 Agosto 2026 10:00 tempo osservato: Sereno Sereno 28 51 1015 vento: Nord N/NE 16.7
30 Agosto 2026 09:00 tempo osservato: Sereno Sereno 24 69 1015 vento: Nord N/NE 11.1
30 Agosto 2026 08:00 tempo osservato: Sereno Sereno 20 88 1015 vento: Nord N/NE 11.1
30 Agosto 2026 07:00 tempo osservato: Sereno Sereno 18 93 1015 vento: Nord N 5.5